Time;durP1;ratioP1;P1;durP2;ratioP2;P2;SDS_P1;SDS_P2;PMS_P1;PMS_P2;Temp;Humidity;BMP_temperature;BMP_pressure;BME280_temperature;BME280_humidity;BME280_pressure;Samples;Min_cycle;Max_cycle;Signal;HPM_P1;HPM_P2
2023/03/22 00:01:14;;;;;;;12.90;11.95;;;;;;;;;;4995212;28;20604;-55
2023/03/22 00:03:40;;;;;;;13.10;12.30;;;;;;;;;;4992666;28;20139;-56
2023/03/22 00:06:06;;;;;;;12.70;11.93;;;;;;;;;;4995237;28;20121;-56
2023/03/22 00:08:31;;;;;;;13.50;12.68;;;;;;;;;;4997314;28;20545;-56
2023/03/22 00:10:57;;;;;;;11.98;11.23;;;;;;;;;;4993409;28;20041;-57
2023/03/22 00:13:22;;;;;;;12.15;11.25;;;;;;;;;;4991379;28;20072;-57
2023/03/22 00:15:48;;;;;;;13.15;12.35;;;;;;;;;;4992172;28;20030;-56
2023/03/22 00:18:17;;;;;;;12.13;11.35;;;;;;;;;;4992952;28;20068;-47
2023/03/22 00:20:49;;;;;;;13.18;12.38;;;;;;;;;;4993156;28;20273;-48
2023/03/22 00:23:15;;;;;;;12.35;11.55;;;;;;;;;;4994065;28;20046;-48
2023/03/22 00:25:43;;;;;;;13.63;12.63;;;;;;;;;;4994753;28;20029;-48
2023/03/22 00:28:08;;;;;;;13.35;11.75;;;;;;;;;;4994146;28;20200;-47
2023/03/22 00:30:33;;;;;;;12.88;12.05;;;;;;;;;;4991579;28;20132;-56
2023/03/22 00:32:59;;;;;;;13.07;12.27;;;;;;;;;;4991362;28;20072;-55
2023/03/22 00:35:25;;;;;;;13.35;12.48;;;;;;;;;;4990837;28;20026;-55
2023/03/22 00:37:50;;;;;;;12.32;11.52;;;;;;;;;;4999588;28;20365;-55
2023/03/22 00:40:16;;;;;;;13.82;12.93;;;;;;;;;;4991892;28;20038;-52
2023/03/22 00:42:41;;;;;;;13.02;12.13;;;;;;;;;;4995535;28;20523;-53
2023/03/22 00:45:09;;;;;;;12.43;11.63;;;;;;;;;;4992930;28;20046;-51
2023/03/22 00:47:34;;;;;;;13.32;12.43;;;;;;;;;;4993647;28;20034;-51
2023/03/22 00:50:01;;;;;;;12.73;11.93;;;;;;;;;;4993385;28;20095;-53
2023/03/22 00:52:27;;;;;;;14.02;13.10;;;;;;;;;;4989302;28;20609;-50
2023/03/22 00:54:53;;;;;;;14.25;13.35;;;;;;;;;;4990799;28;20038;-53
2023/03/22 00:57:19;;;;;;;13.35;12.55;;;;;;;;;;4989725;28;20095;-54
2023/03/22 00:59:44;;;;;;;13.35;12.35;;;;;;;;;;5006308;28;20029;-53
2023/03/22 01:02:12;;;;;;;11.93;11.23;;;;;;;;;;4988708;28;20464;-50
2023/03/22 01:04:48;;;;;;;12.43;11.73;;;;;;;;;;4992842;28;20045;-51
2023/03/22 01:07:16;;;;;;;13.02;12.23;;;;;;;;;;4991332;28;20042;-53
2023/03/22 01:09:46;;;;;;;13.40;11.82;;;;;;;;;;4989189;28;20121;-53
2023/03/22 01:12:11;;;;;;;12.55;11.75;;;;;;;;;;4993048;28;20043;-51
2023/03/22 01:14:38;;;;;;;12.73;11.93;;;;;;;;;;4993005;28;20030;-53
2023/03/22 01:17:03;;;;;;;12.38;11.68;;;;;;;;;;4992989;28;20041;-46
2023/03/22 01:19:29;;;;;;;12.38;11.57;;;;;;;;;;4994926;28;20041;-49
2023/03/22 01:21:55;;;;;;;12.43;11.63;;;;;;;;;;4994883;28;20540;-48
2023/03/22 01:24:20;;;;;;;12.80;12.00;;;;;;;;;;4991754;28;20037;-47
2023/03/22 01:26:46;;;;;;;13.00;12.20;;;;;;;;;;4995073;28;20081;-49
2023/03/22 01:29:11;;;;;;;15.07;14.18;;;;;;;;;;4993742;28;20415;-47
2023/03/22 01:31:37;;;;;;;14.27;13.30;;;;;;;;;;4994439;28;20037;-49
2023/03/22 01:34:03;;;;;;;13.93;13.02;;;;;;;;;;4991728;28;20042;-47
2023/03/22 01:36:28;;;;;;;15.10;14.00;;;;;;;;;;4999360;28;20034;-48
2023/03/22 01:38:54;;;;;;;13.75;12.95;;;;;;;;;;4993844;28;20030;-49
2023/03/22 01:41:20;;;;;;;13.45;12.65;;;;;;;;;;4998883;28;20038;-49
2023/03/22 01:44:05;;;;;;;13.85;12.95;;;;;;;;;;4989741;28;20038;-53
2023/03/22 01:46:31;;;;;;;14.65;13.65;;;;;;;;;;4991686;28;20040;-54
2023/03/22 01:48:59;;;;;;;13.32;12.50;;;;;;;;;;4992922;28;20026;-55
2023/03/22 01:51:24;;;;;;;15.25;13.93;;;;;;;;;;4994272;28;20034;-54
2023/03/22 01:53:58;;;;;;;13.27;12.48;;;;;;;;;;4995200;28;20037;-52
2023/03/22 01:56:26;;;;;;;14.70;13.73;;;;;;;;;;4993940;28;20038;-53
2023/03/22 01:58:53;;;;;;;13.35;12.55;;;;;;;;;;4994828;28;20022;-54
2023/03/22 02:01:20;;;;;;;13.70;12.88;;;;;;;;;;4992565;28;20037;-51
2023/03/22 02:03:58;;;;;;;14.95;13.95;;;;;;;;;;4995474;28;20034;-54
2023/03/22 02:06:25;;;;;;;13.23;12.43;;;;;;;;;;4991619;28;20471;-52
2023/03/22 02:08:51;;;;;;;14.85;12.90;;;;;;;;;;4992271;28;20076;-51
2023/03/22 02:11:24;;;;;;;13.30;12.40;;;;;;;;;;4991176;28;20116;-54
2023/03/22 02:14:04;;;;;;;14.07;12.95;;;;;;;;;;4993050;28;20046;-51
2023/03/22 02:16:39;;;;;;;12.73;11.95;;;;;;;;;;4992306;28;20034;-48
2023/03/22 02:19:41;;;;;;;13.30;12.50;;;;;;;;;;4998417;28;20053;-50
2023/03/22 02:22:08;;;;;;;;;;;;;;;;;;4998097;28;20038;-51
2023/03/22 02:24:44;;;;;;;11.35;10.65;;;;;;;;;;4995506;28;20355;-52
2023/03/22 02:27:47;;;;;;;12.57;11.77;;;;;;;;;;4993415;28;20405;-54
2023/03/22 02:30:48;;;;;;;12.32;11.63;;;;;;;;;;4994817;28;20130;-52
2023/03/22 02:33:14;;;;;;;;;;;;;;;;;;4996830;28;20034;-51
2023/03/22 02:35:52;;;;;;;11.80;11.00;;;;;;;;;;4993985;28;19924;-53
2023/03/22 02:38:51;;;;;;;14.27;13.35;;;;;;;;;;4995689;28;20034;-49
2023/03/22 02:41:35;;;;;;;11.88;11.07;;;;;;;;;;4998595;28;20046;-49
2023/03/22 02:44:08;;;;;;;12.73;11.93;;;;;;;;;;4994015;28;20064;-50
2023/03/22 02:46:43;;;;;;;12.35;11.60;;;;;;;;;;4999717;28;20081;-49
2023/03/22 02:49:20;;;;;;;12.82;11.98;;;;;;;;;;4997028;28;20430;-48
2023/03/22 02:51:54;;;;;;;12.30;11.50;;;;;;;;;;4993374;28;20403;-48
2023/03/22 02:54:28;;;;;;;11.40;10.68;;;;;;;;;;4992067;28;20054;-49
2023/03/22 02:57:15;;;;;;;10.48;9.77;;;;;;;;;;4995876;28;20451;-49
2023/03/22 02:59:42;;;;;;;11.57;10.88;;;;;;;;;;4995396;28;20045;-47
2023/03/22 03:02:12;;;;;;;10.90;10.10;;;;;;;;;;4993796;28;20419;-50
2023/03/22 03:04:42;;;;;;;11.20;10.32;;;;;;;;;;4996487;28;20037;-48
2023/03/22 03:07:10;;;;;;;10.50;9.77;;;;;;;;;;4997053;28;20205;-49
2023/03/22 03:09:38;;;;;;;10.73;10.07;;;;;;;;;;4995103;28;20049;-47
2023/03/22 03:12:12;;;;;;;11.05;10.30;;;;;;;;;;4991341;28;20115;-48
2023/03/22 03:14:38;;;;;;;12.27;11.48;;;;;;;;;;4992381;28;20038;-52
2023/03/22 03:17:09;;;;;;;12.38;11.57;;;;;;;;;;4994773;28;20029;-51
2023/03/22 03:19:52;;;;;;;12.18;11.05;;;;;;;;;;4995156;28;20109;-50
2023/03/22 03:22:49;;;;;;;11.05;10.30;;;;;;;;;;4997667;28;20065;-50
2023/03/22 03:25:30;;;;;;;11.00;9.98;;;;;;;;;;4992126;28;20464;-48
2023/03/22 03:28:08;;;;;;;10.52;9.82;;;;;;;;;;4994940;28;20040;-49
2023/03/22 03:30:52;;;;;;;13.27;10.95;;;;;;;;;;4992093;28;20029;-48
2023/03/22 03:33:22;;;;;;;10.80;10.00;;;;;;;;;;4993180;28;20041;-49
2023/03/22 03:35:58;;;;;;;11.02;10.23;;;;;;;;;;4991021;28;20034;-47
2023/03/22 03:38:34;;;;;;;10.13;9.48;;;;;;;;;;5010753;28;20049;-48
2023/03/22 03:41:04;;;;;;;10.25;9.65;;;;;;;;;;4996983;28;20050;-50
2023/03/22 03:43:30;;;;;;;11.02;10.23;;;;;;;;;;5002434;28;20369;-48
2023/03/22 03:45:55;;;;;;;11.25;10.52;;;;;;;;;;4996702;28;20105;-48
2023/03/22 03:48:23;;;;;;;11.45;10.75;;;;;;;;;;4996399;28;20440;-52
2023/03/22 03:50:51;;;;;;;10.70;10.00;;;;;;;;;;4996636;28;20140;-48
2023/03/22 03:53:16;;;;;;;11.38;10.38;;;;;;;;;;4995463;28;20042;-49
2023/03/22 03:55:42;;;;;;;11.80;10.80;;;;;;;;;;4994722;28;20837;-55
2023/03/22 03:58:08;;;;;;;11.63;10.82;;;;;;;;;;4995035;28;20372;-55
2023/03/22 04:00:37;;;;;;;10.95;10.20;;;;;;;;;;5009304;28;20105;-54
2023/03/22 04:03:13;;;;;;;11.95;11.13;;;;;;;;;;4992433;28;20432;-54
2023/03/22 04:05:38;;;;;;;10.98;10.27;;;;;;;;;;4991999;28;20046;-54
2023/03/22 04:08:04;;;;;;;10.40;9.65;;;;;;;;;;4994150;28;20102;-54
2023/03/22 04:10:30;;;;;;;10.68;10.00;;;;;;;;;;4994639;28;20041;-55
2023/03/22 04:12:55;;;;;;;10.20;9.40;;;;;;;;;;4994428;28;20046;-55
2023/03/22 04:15:21;;;;;;;20.17;10.88;;;;;;;;;;4991887;28;20522;-54
2023/03/22 04:17:46;;;;;;;10.38;9.68;;;;;;;;;;4994936;28;20041;-55
2023/03/22 04:20:12;;;;;;;11.30;10.60;;;;;;;;;;4995714;28;20052;-55
2023/03/22 04:22:40;;;;;;;12.68;11.57;;;;;;;;;;4992834;28;20067;-54
2023/03/22 04:25:13;;;;;;;12.02;11.23;;;;;;;;;;4992481;28;20125;-54
2023/03/22 04:27:40;;;;;;;11.25;10.55;;;;;;;;;;4994316;28;20038;-52
2023/03/22 04:30:09;;;;;;;11.15;10.35;;;;;;;;;;4990326;28;20117;-58
2023/03/22 04:32:35;;;;;;;10.70;10.00;;;;;;;;;;4992234;28;20056;-54
2023/03/22 04:35:01;;;;;;;11.35;10.65;;;;;;;;;;4993267;28;20463;-55
2023/03/22 04:37:27;;;;;;;11.00;10.20;;;;;;;;;;4995147;28;20047;-54
2023/03/22 04:39:52;;;;;;;12.73;11.82;;;;;;;;;;4996969;28;20472;-55
2023/03/22 04:42:18;;;;;;;10.77;10.07;;;;;;;;;;4996156;28;20095;-55
2023/03/22 04:44:43;;;;;;;11.80;10.98;;;;;;;;;;4997771;28;20105;-54
2023/03/22 04:47:09;;;;;;;12.00;11.23;;;;;;;;;;4995541;28;20359;-54
2023/03/22 04:49:34;;;;;;;12.20;11.48;;;;;;;;;;4998005;28;20109;-54
2023/03/22 04:52:00;;;;;;;13.07;12.20;;;;;;;;;;4995349;28;20033;-52
2023/03/22 04:54:25;;;;;;;11.43;10.73;;;;;;;;;;4991696;28;20052;-51
2023/03/22 04:56:50;;;;;;;12.13;11.38;;;;;;;;;;4994667;28;20033;-54
2023/03/22 04:59:19;;;;;;;11.27;10.57;;;;;;;;;;4990769;28;20500;-53
2023/03/22 05:01:45;;;;;;;10.57;9.88;;;;;;;;;;4997330;28;20029;-53
2023/03/22 05:04:11;;;;;;;11.50;10.80;;;;;;;;;;4995103;28;20045;-53
2023/03/22 05:06:36;;;;;;;11.32;10.63;;;;;;;;;;4992002;28;20025;-54
2023/03/22 05:09:02;;;;;;;12.63;11.82;;;;;;;;;;4993802;28;20269;-51
2023/03/22 05:11:27;;;;;;;11.98;11.18;;;;;;;;;;4991045;28;20029;-54
2023/03/22 05:13:54;;;;;;;10.35;9.75;;;;;;;;;;4994817;28;20042;-50
2023/03/22 05:16:19;;;;;;;13.40;12.52;;;;;;;;;;4993739;28;20038;-55
2023/03/22 05:18:45;;;;;;;11.65;10.65;;;;;;;;;;4993279;28;20439;-55
2023/03/22 05:21:14;;;;;;;11.30;10.57;;;;;;;;;;4994232;28;20042;-52
2023/03/22 05:23:43;;;;;;;12.30;11.40;;;;;;;;;;4992025;28;20049;-50
2023/03/22 05:26:09;;;;;;;11.23;10.52;;;;;;;;;;4994093;28;20041;-47
2023/03/22 05:28:35;;;;;;;11.30;10.60;;;;;;;;;;4992427;28;20049;-50
2023/03/22 05:31:01;;;;;;;10.60;9.90;;;;;;;;;;4986554;28;20038;-49
2023/03/22 05:33:28;;;;;;;11.23;10.32;;;;;;;;;;4993782;28;20056;-52
2023/03/22 05:35:53;;;;;;;10.95;10.15;;;;;;;;;;4995912;28;20026;-52
2023/03/22 05:38:21;;;;;;;10.75;10.05;;;;;;;;;;4994482;28;20044;-51
2023/03/22 05:40:47;;;;;;;11.23;10.50;;;;;;;;;;4995237;28;20038;-48
2023/03/22 05:43:12;;;;;;;11.23;10.52;;;;;;;;;;4994996;28;20046;-54
2023/03/22 05:45:38;;;;;;;10.23;9.52;;;;;;;;;;4994677;28;20033;-53
2023/03/22 05:48:04;;;;;;;9.80;9.20;;;;;;;;;;4992162;28;20029;-47
2023/03/22 05:50:29;;;;;;;12.48;11.57;;;;;;;;;;4997834;28;20108;-48
2023/03/22 05:52:55;;;;;;;12.20;11.40;;;;;;;;;;4999590;28;20053;-46
2023/03/22 05:55:21;;;;;;;11.40;10.60;;;;;;;;;;4998999;28;20201;-52
2023/03/22 05:57:50;;;;;;;11.65;10.95;;;;;;;;;;4999522;28;20034;-45
2023/03/22 06:00:17;;;;;;;10.95;10.18;;;;;;;;;;4996936;28;20569;-48
2023/03/22 06:02:44;;;;;;;11.18;10.35;;;;;;;;;;4996235;28;20429;-50
2023/03/22 06:05:11;;;;;;;11.45;10.65;;;;;;;;;;4994161;28;20045;-51
2023/03/22 06:07:37;;;;;;;12.40;11.60;;;;;;;;;;4995175;28;20275;-55
2023/03/22 06:10:05;;;;;;;10.95;10.15;;;;;;;;;;4996343;28;20046;-55
2023/03/22 06:12:31;;;;;;;10.80;10.10;;;;;;;;;;4997384;28;20036;-56
2023/03/22 06:14:56;;;;;;;10.98;10.30;;;;;;;;;;4996670;28;20046;-57
2023/03/22 06:17:22;;;;;;;12.57;10.77;;;;;;;;;;4993726;28;20058;-55
2023/03/22 06:19:49;;;;;;;12.50;11.52;;;;;;;;;;4994021;28;20035;-47
2023/03/22 06:22:14;;;;;;;10.95;10.25;;;;;;;;;;4996570;28;20037;-50
2023/03/22 06:24:41;;;;;;;12.13;11.23;;;;;;;;;;4996908;28;20427;-48
2023/03/22 06:27:07;;;;;;;10.68;9.98;;;;;;;;;;4998475;28;20117;-51
2023/03/22 06:29:32;;;;;;;13.07;12.07;;;;;;;;;;4993661;28;20494;-51
2023/03/22 06:31:58;;;;;;;12.63;11.70;;;;;;;;;;4996643;28;20487;-49
2023/03/22 06:34:23;;;;;;;14.20;13.20;;;;;;;;;;4996887;28;20034;-51
2023/03/22 06:36:48;;;;;;;12.82;12.07;;;;;;;;;;4994773;28;20467;-48
2023/03/22 06:39:14;;;;;;;13.25;12.45;;;;;;;;;;4994490;28;20031;-49
2023/03/22 06:41:39;;;;;;;12.88;12.07;;;;;;;;;;4996138;28;20097;-54
2023/03/22 06:44:04;;;;;;;13.70;12.85;;;;;;;;;;4998627;28;20042;-55
2023/03/22 06:46:30;;;;;;;14.60;13.70;;;;;;;;;;4997508;28;20025;-55
2023/03/22 06:48:55;;;;;;;12.55;11.75;;;;;;;;;;4993067;28;20033;-53
2023/03/22 06:51:21;;;;;;;13.80;12.90;;;;;;;;;;4994351;28;20046;-56
2023/03/22 06:53:47;;;;;;;12.20;11.50;;;;;;;;;;4993989;28;20605;-51
2023/03/22 06:56:12;;;;;;;14.00;13.20;;;;;;;;;;4992073;28;20231;-51
2023/03/22 06:58:38;;;;;;;13.30;12.50;;;;;;;;;;4995892;28;20427;-55
2023/03/22 07:01:03;;;;;;;13.65;12.85;;;;;;;;;;4996010;28;20081;-55
2023/03/22 07:03:28;;;;;;;14.95;14.05;;;;;;;;;;4996860;28;20033;-55
2023/03/22 07:06:02;;;;;;;14.93;14.05;;;;;;;;;;4994187;28;20461;-55
2023/03/22 07:08:27;;;;;;;13.18;12.38;;;;;;;;;;4992330;28;20034;-54
2023/03/22 07:10:52;;;;;;;14.82;13.93;;;;;;;;;;4995211;28;20056;-55
2023/03/22 07:13:18;;;;;;;12.80;11.90;;;;;;;;;;4994373;28;20065;-60
2023/03/22 07:15:43;;;;;;;13.73;12.93;;;;;;;;;;4996734;28;20042;-48
2023/03/22 07:18:09;;;;;;;14.25;13.40;;;;;;;;;;5000592;28;20141;-55
2023/03/22 07:20:37;;;;;;;12.10;11.32;;;;;;;;;;4992975;28;20133;-56
2023/03/22 07:23:03;;;;;;;12.45;11.55;;;;;;;;;;4994915;28;20072;-58
2023/03/22 07:25:28;;;;;;;12.20;11.40;;;;;;;;;;4994414;28;20057;-53
2023/03/22 07:27:54;;;;;;;13.90;13.00;;;;;;;;;;4994481;28;20113;-54
2023/03/22 07:30:19;;;;;;;12.32;11.52;;;;;;;;;;4992787;28;20049;-53
2023/03/22 07:32:45;;;;;;;11.85;11.10;;;;;;;;;;4994033;28;20036;-54
2023/03/22 07:35:10;;;;;;;10.40;9.80;;;;;;;;;;4995280;28;20121;-54
2023/03/22 07:37:36;;;;;;;12.20;11.40;;;;;;;;;;4994033;28;20030;-53
2023/03/22 07:40:03;;;;;;;11.45;10.70;;;;;;;;;;4996051;28;20102;-55
2023/03/22 07:42:30;;;;;;;11.43;10.57;;;;;;;;;;4995068;28;20025;-48
2023/03/22 07:44:55;;;;;;;11.98;11.27;;;;;;;;;;4995356;28;20429;-55
2023/03/22 07:47:21;;;;;;;12.60;11.80;;;;;;;;;;4991561;28;20112;-49
2023/03/22 07:49:46;;;;;;;12.18;11.38;;;;;;;;;;4993138;28;20117;-57
2023/03/22 07:52:11;;;;;;;11.40;10.70;;;;;;;;;;4992369;28;20109;-58
2023/03/22 07:54:37;;;;;;;10.82;10.13;;;;;;;;;;4995913;28;20037;-52
2023/03/22 07:57:04;;;;;;;12.07;11.32;;;;;;;;;;4993331;28;20481;-47
2023/03/22 07:59:30;;;;;;;12.25;11.45;;;;;;;;;;4992113;28;20034;-52
2023/03/22 08:01:55;;;;;;;12.55;11.52;;;;;;;;;;4992203;28;20049;-54
2023/03/22 08:04:21;;;;;;;11.60;10.88;;;;;;;;;;4991084;28;20123;-55
2023/03/22 08:06:47;;;;;;;12.60;11.80;;;;;;;;;;4991874;28;20365;-55
2023/03/22 08:09:13;;;;;;;11.80;10.73;;;;;;;;;;4987487;28;20420;-54
2023/03/22 08:11:38;;;;;;;12.13;11.15;;;;;;;;;;4994740;28;20094;-51
2023/03/22 08:14:03;;;;;;;13.38;12.52;;;;;;;;;;4997308;28;20477;-51
2023/03/22 08:16:29;;;;;;;11.55;10.85;;;;;;;;;;4996420;28;20034;-51
2023/03/22 08:18:55;;;;;;;10.75;10.10;;;;;;;;;;4998879;28;20475;-50
2023/03/22 08:21:20;;;;;;;12.48;11.68;;;;;;;;;;4996834;28;20048;-52
2023/03/22 08:23:46;;;;;;;12.35;11.63;;;;;;;;;;4994536;28;20033;-55
2023/03/22 08:26:11;;;;;;;13.70;12.80;;;;;;;;;;4992457;28;20031;-54
2023/03/22 08:28:37;;;;;;;12.00;11.20;;;;;;;;;;4994084;28;20080;-51
2023/03/22 08:31:11;;;;;;;11.80;11.07;;;;;;;;;;4992756;28;20053;-53
2023/03/22 08:33:37;;;;;;;11.57;10.88;;;;;;;;;;5008413;28;20064;-51
2023/03/22 08:36:15;;;;;;;12.40;11.68;;;;;;;;;;4995851;28;20070;-52
2023/03/22 08:38:41;;;;;;;11.55;10.85;;;;;;;;;;4993435;28;20034;-54
2023/03/22 08:41:07;;;;;;;11.55;10.85;;;;;;;;;;4992129;28;20029;-54
2023/03/22 08:43:32;;;;;;;12.77;10.73;;;;;;;;;;4990907;28;20044;-53
2023/03/22 08:45:58;;;;;;;12.73;11.93;;;;;;;;;;4992022;28;20652;-54
2023/03/22 08:48:23;;;;;;;11.93;11.23;;;;;;;;;;4995903;28;20049;-55
2023/03/22 08:50:49;;;;;;;11.43;10.73;;;;;;;;;;4992312;28;20420;-53
2023/03/22 08:53:15;;;;;;;11.98;11.25;;;;;;;;;;4992302;28;20052;-53
2023/03/22 08:55:43;;;;;;;12.77;11.98;;;;;;;;;;4994839;28;20659;-54
2023/03/22 08:58:13;;;;;;;13.00;12.10;;;;;;;;;;4993419;28;20038;-54
2023/03/22 09:00:40;;;;;;;14.05;13.23;;;;;;;;;;4994487;28;20128;-51
2023/03/22 09:03:05;;;;;;;13.70;12.90;;;;;;;;;;5006444;28;20065;-51
2023/03/22 09:05:31;;;;;;;12.35;11.63;;;;;;;;;;4993235;28;20068;-53
2023/03/22 09:07:56;;;;;;;12.48;11.77;;;;;;;;;;4993143;28;20035;-54
2023/03/22 09:10:22;;;;;;;13.10;12.30;;;;;;;;;;4991975;28;20045;-54
2023/03/22 09:12:47;;;;;;;13.48;12.68;;;;;;;;;;4994778;28;20349;-54
2023/03/22 09:15:13;;;;;;;12.40;11.38;;;;;;;;;;4992378;28;20049;-54
2023/03/22 09:17:38;;;;;;;12.35;11.60;;;;;;;;;;4992983;28;20621;-55
2023/03/22 09:20:06;;;;;;;13.13;12.32;;;;;;;;;;4992458;28;20113;-55
2023/03/22 09:22:31;;;;;;;12.77;11.98;;;;;;;;;;5003295;28;20045;-53
2023/03/22 09:24:57;;;;;;;13.63;12.32;;;;;;;;;;4998144;28;20042;-55
2023/03/22 09:27:22;;;;;;;12.23;11.52;;;;;;;;;;4999716;28;20076;-54
2023/03/22 09:29:49;;;;;;;13.05;12.25;;;;;;;;;;4997019;28;20888;-51
2023/03/22 09:32:16;;;;;;;11.93;11.13;;;;;;;;;;5000063;28;20113;-53
2023/03/22 09:34:41;;;;;;;13.55;12.75;;;;;;;;;;5000599;28;20424;-52
2023/03/22 09:37:07;;;;;;;12.40;11.63;;;;;;;;;;4999954;28;20034;-55
2023/03/22 09:39:32;;;;;;;12.82;12.02;;;;;;;;;;4996893;28;20045;-53
2023/03/22 09:42:04;;;;;;;12.73;12.02;;;;;;;;;;5000324;28;20103;-54
2023/03/22 09:44:35;;;;;;;12.02;11.32;;;;;;;;;;4997504;28;20034;-54
2023/03/22 09:47:04;;;;;;;12.25;11.55;;;;;;;;;;5003544;28;20034;-55
2023/03/22 09:49:35;;;;;;;11.90;11.20;;;;;;;;;;4996670;28;20037;-55
2023/03/22 09:52:01;;;;;;;12.07;11.38;;;;;;;;;;5000758;28;20041;-55
2023/03/22 09:54:36;;;;;;;13.07;12.27;;;;;;;;;;5001819;28;20621;-55
2023/03/22 09:57:07;;;;;;;12.15;11.35;;;;;;;;;;4997898;28;20097;-54
2023/03/22 09:59:55;;;;;;;11.60;10.90;;;;;;;;;;4998534;28;20045;-56
2023/03/22 10:02:56;;;;;;;12.15;11.45;;;;;;;;;;5003480;28;20046;-53
2023/03/22 10:05:28;;;;;;;;;;;;;;;;;;4999358;28;20058;-54
2023/03/22 10:08:12;;;;;;;11.13;10.43;;;;;;;;;;4998159;28;19972;-48
2023/03/22 10:10:40;;;;;;;12.18;11.48;;;;;;;;;;5000184;28;20063;-55
2023/03/22 10:13:18;;;;;;;11.98;11.27;;;;;;;;;;4998925;28;20050;-52
2023/03/22 10:15:57;;;;;;;12.02;11.32;;;;;;;;;;5015900;28;20124;-52
2023/03/22 10:18:47;;;;;;;11.45;10.75;;;;;;;;;;4996536;28;20042;-54
2023/03/22 10:21:15;;;;;;;10.95;10.27;;;;;;;;;;5000305;28;20133;-51
2023/03/22 10:23:49;;;;;;;14.32;13.52;;;;;;;;;;5000312;28;20026;-53
2023/03/22 10:26:23;;;;;;;13.13;12.32;;;;;;;;;;4999451;28;20042;-56
2023/03/22 10:28:58;;;;;;;13.38;12.57;;;;;;;;;;5000324;28;20066;-52
2023/03/22 10:31:26;;;;;;;13.43;12.63;;;;;;;;;;4999224;28;20121;-50
2023/03/22 10:34:04;;;;;;;16.00;15.10;;;;;;;;;;5012841;28;20129;-49
2023/03/22 10:36:33;;;;;;;19.63;18.55;;;;;;;;;;4998563;28;20046;-49
2023/03/22 10:39:33;;;;;;;22.40;21.20;;;;;;;;;;4998202;28;20041;-56
2023/03/22 10:42:03;;;;;;;21.47;20.30;;;;;;;;;;4989486;28;20046;-48
2023/03/22 10:44:33;;;;;;;26.50;25.02;;;;;;;;;;4995902;28;20118;-50
2023/03/22 10:47:06;;;;;;;22.38;21.00;;;;;;;;;;4995459;28;20348;-54
2023/03/22 10:49:42;;;;;;;17.15;16.20;;;;;;;;;;4994733;28;20415;-55
2023/03/22 10:52:25;;;;;;;14.63;13.82;;;;;;;;;;5011673;28;20035;-48
2023/03/22 10:54:50;;;;;;;17.05;16.10;;;;;;;;;;4995452;28;20034;-48
2023/03/22 10:57:16;;;;;;;15.23;14.35;;;;;;;;;;4994150;28;20042;-48
2023/03/22 10:59:41;;;;;;;13.38;12.57;;;;;;;;;;5002672;28;20041;-48
2023/03/22 11:02:28;;;;;;;13.40;12.20;;;;;;;;;;4995476;28;20090;-55
2023/03/22 11:05:03;;;;;;;13.50;12.70;;;;;;;;;;4996563;28;20128;-48
2023/03/22 11:07:51;;;;;;;14.20;13.20;;;;;;;;;;4993991;28;20109;-53
2023/03/22 11:10:33;;;;;;;13.52;12.73;;;;;;;;;;4996487;28;20054;-56
2023/03/22 11:13:08;;;;;;;13.68;12.88;;;;;;;;;;4996560;28;20046;-55
2023/03/22 11:15:37;;;;;;;12.63;11.57;;;;;;;;;;4993367;28;20042;-49
2023/03/22 11:18:07;;;;;;;13.85;12.55;;;;;;;;;;4994944;28;20046;-50
2023/03/22 11:20:34;;;;;;;15.48;12.43;;;;;;;;;;4994182;28;20030;-52
2023/03/22 11:23:01;;;;;;;12.07;11.38;;;;;;;;;;4993060;28;20057;-49
2023/03/22 11:25:30;;;;;;;13.57;12.77;;;;;;;;;;4995683;28;20129;-53
2023/03/22 11:28:04;;;;;;;12.13;11.43;;;;;;;;;;4993669;28;20042;-51
2023/03/22 11:30:34;;;;;;;13.70;12.90;;;;;;;;;;4996436;28;20049;-52
2023/03/22 11:33:01;;;;;;;14.48;13.68;;;;;;;;;;4996119;28;20417;-50
2023/03/22 11:35:28;;;;;;;15.07;14.18;;;;;;;;;;5004164;28;20073;-53
2023/03/22 11:37:55;;;;;;;16.13;15.23;;;;;;;;;;4994191;28;20104;-50
2023/03/22 11:40:32;;;;;;;16.10;15.20;;;;;;;;;;4996586;28;20037;-52
2023/03/22 11:43:18;;;;;;;16.95;15.98;;;;;;;;;;4991384;28;20115;-50
2023/03/22 11:45:44;;;;;;;14.75;13.90;;;;;;;;;;4994603;28;20064;-55
2023/03/22 11:48:25;;;;;;;14.82;13.98;;;;;;;;;;4996180;28;20111;-55
2023/03/22 11:50:53;;;;;;;14.20;13.40;;;;;;;;;;4996767;28;20029;-51
2023/03/22 11:53:23;;;;;;;14.13;13.32;;;;;;;;;;4996100;28;20044;-51
2023/03/22 11:55:51;;;;;;;14.37;13.57;;;;;;;;;;4996560;28;20041;-52
2023/03/22 11:58:42;;;;;;;15.52;14.65;;;;;;;;;;4992975;28;20052;-56
2023/03/22 12:01:12;;;;;;;;;;;;;;;;;;5001886;28;20045;-55
2023/03/22 12:03:40;;;;;;;15.60;14.70;;;;;;;;;;4991727;28;19917;-56
2023/03/22 12:06:28;;;;;;;17.38;16.38;;;;;;;;;;4993154;28;20034;-56
2023/03/22 12:09:09;;;;;;;17.30;16.20;;;;;;;;;;4996532;28;20037;-55
2023/03/22 12:11:46;;;;;;;15.90;15.00;;;;;;;;;;4992857;28;20034;-55
2023/03/22 12:14:11;;;;;;;14.95;14.13;;;;;;;;;;4994289;28;20044;-56
2023/03/22 12:16:58;;;;;;;16.08;15.18;;;;;;;;;;4995776;28;20046;-56
2023/03/22 12:19:31;;;;;;;17.42;16.42;;;;;;;;;;4995266;28;20064;-52
2023/03/22 12:21:58;;;;;;;18.08;16.98;;;;;;;;;;4992981;28;20030;-52
2023/03/22 12:24:29;;;;;;;16.27;15.38;;;;;;;;;;4995496;28;20069;-51
2023/03/22 12:27:03;;;;;;;17.45;16.45;;;;;;;;;;4992431;28;20406;-53
2023/03/22 12:29:29;;;;;;;22.98;21.73;;;;;;;;;;4997110;28;20032;-51
2023/03/22 12:32:02;;;;;;;18.73;17.73;;;;;;;;;;4996854;28;20095;-53
2023/03/22 12:34:35;;;;;;;19.10;18.08;;;;;;;;;;4991652;28;21012;-56
2023/03/22 12:37:05;;;;;;;21.35;20.17;;;;;;;;;;4991263;28;20073;-56
2023/03/22 12:39:38;;;;;;;19.75;18.65;;;;;;;;;;4992274;28;20053;-56
2023/03/22 12:42:14;;;;;;;25.90;24.52;;;;;;;;;;4990703;28;20041;-56
2023/03/22 12:44:42;;;;;;;28.33;26.85;;;;;;;;;;4992290;28;20383;-57
2023/03/22 12:47:30;;;;;;;18.38;17.38;;;;;;;;;;4990089;28;20785;-57
2023/03/22 12:50:11;;;;;;;18.92;17.85;;;;;;;;;;4991667;28;20046;-52
2023/03/22 12:52:49;;;;;;;24.95;23.65;;;;;;;;;;4993103;28;20034;-56
2023/03/22 12:55:34;;;;;;;21.58;20.40;;;;;;;;;;4992621;28;20498;-56
2023/03/22 12:57:59;;;;;;;19.33;18.27;;;;;;;;;;4990172;28;20065;-50
2023/03/22 13:00:27;;;;;;;33.90;32.15;;;;;;;;;;4992065;28;20790;-59
2023/03/22 13:03:00;;;;;;;37.28;35.38;;;;;;;;;;4993777;28;20050;-58
2023/03/22 13:05:32;;;;;;;36.60;34.75;;;;;;;;;;4992809;28;20520;-58
2023/03/22 13:08:02;;;;;;;33.55;31.80;;;;;;;;;;4994143;28;20372;-58
2023/03/22 13:10:30;;;;;;;39.77;37.77;;;;;;;;;;4994727;28;20368;-58
2023/03/22 13:13:31;;;;;;;40.70;38.63;;;;;;;;;;4994180;28;20228;-58
2023/03/22 13:16:21;;;;;;;41.60;39.47;;;;;;;;;;4994630;28;20037;-58
2023/03/22 13:18:46;;;;;;;37.33;35.43;;;;;;;;;;4995067;28;20415;-59
2023/03/22 13:21:12;;;;;;;41.50;39.40;;;;;;;;;;4994439;28;20269;-58
2023/03/22 13:23:56;;;;;;;41.58;39.47;;;;;;;;;;4993766;28;20113;-59
2023/03/22 13:26:33;;;;;;;35.78;33.88;;;;;;;;;;4995152;28;20472;-59
2023/03/22 13:29:06;;;;;;;35.08;33.28;;;;;;;;;;4997528;28;20038;-58
2023/03/22 13:31:37;;;;;;;35.83;34.00;;;;;;;;;;4994961;28;20114;-58
2023/03/22 13:34:03;;;;;;;32.45;30.55;;;;;;;;;;4993441;28;20083;-58
2023/03/22 13:36:30;;;;;;;31.05;29.25;;;;;;;;;;4996309;28;20029;-59
2023/03/22 13:39:06;;;;;;;39.92;37.88;;;;;;;;;;4995724;28;20050;-59
2023/03/22 13:41:33;;;;;;;39.45;37.42;;;;;;;;;;4991564;28;20551;-57
2023/03/22 13:44:01;;;;;;;36.50;34.63;;;;;;;;;;4992899;28;20754;-58
2023/03/22 13:46:51;;;;;;;33.40;31.65;;;;;;;;;;4993449;28;20424;-57
2023/03/22 13:49:38;;;;;;;33.08;31.35;;;;;;;;;;4993503;28;20038;-58
2023/03/22 13:52:07;;;;;;;31.55;29.90;;;;;;;;;;4991998;28;20045;-58
2023/03/22 13:54:41;;;;;;;33.80;32.05;;;;;;;;;;4992452;28;20622;-59
2023/03/22 13:57:36;;;;;;;36.83;34.92;;;;;;;;;;4992020;28;20076;-58
2023/03/22 14:00:17;;;;;;;37.25;35.35;;;;;;;;;;4985384;28;20177;-58
2023/03/22 14:02:44;;;;;;;40.83;38.75;;;;;;;;;;4993794;28;20179;-59
2023/03/22 14:05:21;;;;;;;42.67;40.45;;;;;;;;;;4995883;28;20046;-58
2023/03/22 14:07:53;;;;;;;38.35;36.35;;;;;;;;;;4996613;28;20042;-52
2023/03/22 14:10:42;;;;;;;42.33;40.17;;;;;;;;;;4996560;28;20256;-52
2023/03/22 14:13:30;;;;;;;38.45;36.45;;;;;;;;;;4999635;28;20038;-50
2023/03/22 14:16:02;;;;;;;32.85;31.15;;;;;;;;;;4996346;28;20100;-58
2023/03/22 14:18:38;;;;;;;38.08;36.13;;;;;;;;;;4996560;28;20072;-57
2023/03/22 14:21:12;;;;;;;30.98;29.38;;;;;;;;;;5000943;28;20643;-56
2023/03/22 14:23:50;;;;;;;35.50;33.65;;;;;;;;;;4996838;28;20025;-57
2023/03/22 14:26:24;;;;;;;34.35;32.58;;;;;;;;;;4998583;28;20535;-56
2023/03/22 14:28:52;;;;;;;36.67;34.78;;;;;;;;;;4996865;28;20053;-54
2023/03/22 14:31:23;;;;;;;37.55;35.65;;;;;;;;;;4996227;28;20037;-50
2023/03/22 14:33:51;;;;;;;37.83;35.88;;;;;;;;;;4994210;28;20038;-56
2023/03/22 14:36:17;;;;;;;42.10;40.00;;;;;;;;;;4994293;28;20088;-52